Fort Story, Virginia
Current Conditions -  °F | °C
As of 12:56 AM on Wednesday 22 Oct 2014 (Local Time) from KNTU Reporting Station
Broken Clouds Broken Clouds  
Wind Chill: 16°   Ceiling: 8000
Heat Index: 16°   Visibility: 10mi
Dew Point: 12°   Wind: 9mph
Humidity: 78%   Direction: 360°N
Pressure: 29.83"   Gusts: NA
Location:  36.922°N, 76.0108°W
Report Text: KNTU 220456Z 36008KT 10SM SCT015 BKN080 16/12 A2983 RMK AO2 SLP103 T01610122 402440139
Loading
Personal Weather Stations






























Interactive Weather Map
Tropical Storm Tracking
New forecast layout! Learn more

10-Day Weather Forecast

Advertisements
Track Severe Weather on mobile